Airfield :
LOGIN :

Register | Disclaimer

   EN    FR    IT 

 










Legend :    VFR   Marginal VFR   IFR   Intensive IFR   Very Intensive IFR
Visi :
Ceiling :
>= 8 km
>= 3000ft
5 to 8 km
1000 to 3000 ft
1500m to 5 km
500 to 1000 ft
800 to 1500m
200 to 500 ft
< 800m
< 200 ft
Symbols :   Thunderstorms  Fog  Heavy snow  Heavy precipitations  Wind > 20 kt
SIGMETs :     Misc.  Thunderstorms  Icing  Turbulence  Mountain Waves  Volcanic Ashes







- Airport Elevation : 370 ft


EBBE - Beauvechain AB

CURRENT METAR :
  • 210025Z AUTO 30008KT 0600 FG OVC002/// 10/10 Q1013 RED

EXPIRED METARs :
  • 202355Z AUTO 30008KT 0300 FG OVC002/// 10/10 Q1012 RED
  • 202325Z AUTO 29008KT 0650 FG OVC000/// 10/10 Q1012 RED
  • 202308Z AUTO 29009KT 1400 BR BKN001/// BKN003/// 10/10 Q1012 RED
  • 202255Z AUTO 29009KT 2600 BR FEW001/// BKN003/// 10/10 Q1012 YLO
  • 202225Z AUTO 29009KT 0400 FG OVC000/// 10/10 Q1012 RED
  • 202155Z AUTO 30009KT 1200 BR OVC001/// 11/10 Q1013 RED

TAF TAF EBBE
Valid from the 20 at 19:00 until the 21 at 07:00 UTC


201541Z 2019/2107 30007KT 5000 BR SCT006 BKN009
TEMPO 2020/2107 2000 BR SCT002 BKN004
PROB30
TEMPO 2022/2104 0500 FG SCT001 BKN003
No reported NOTAMs for that airfield.



MET'MAP, your aeronautical weather chart ! - Copyright ORBIFLY December 2007 - Disclaimer

ORBIFLY MET'MAP TEAM :

Programming & Development : Alexandra Zaïnal
Concept & Development : Baudouin d'Aumeries
Co-Development & Prog : Marc-Olivier Méhu
Technical & hardware support : Manuel Goepfert

Contact : metmap@orbifly.com




SOURCES & CREDITS :

   NOAA